createdAt,value
2022-12-31T00:00:33.667Z,28.00
2022-12-31T00:01:07.353Z,28.45
2022-12-31T00:01:38.889Z,28.60
2022-12-31T00:02:10.541Z,27.00
2022-12-31T00:02:42.281Z,28.27
2022-12-31T00:03:14.040Z,27.75
2022-12-31T00:03:46.353Z,28.65
2022-12-31T00:04:17.940Z,28.98
2022-12-31T00:04:49.503Z,29.90
2022-12-31T00:05:21.116Z,26.55
2022-12-31T00:05:52.730Z,27.80
2022-12-31T00:06:26.884Z,29.63
2022-12-31T00:06:58.479Z,29.95
2022-12-31T00:07:30.052Z,29.15
2022-12-31T00:08:02.524Z,29.45
2022-12-31T00:08:34.138Z,28.83
2022-12-31T00:09:07.366Z,29.67
2022-12-31T00:09:38.962Z,28.55
2022-12-31T00:10:10.604Z,29.88
2022-12-31T00:10:42.302Z,28.40
2022-12-31T00:11:14.817Z,29.58
2022-12-31T00:11:46.396Z,29.90
2022-12-31T00:12:17.951Z,30.67
2022-12-31T00:12:49.637Z,30.27
2022-12-31T00:13:21.702Z,28.67
2022-12-31T00:13:53.750Z,28.15
2022-12-31T00:14:25.354Z,27.92
2022-12-31T00:14:56.903Z,27.33
2022-12-31T00:15:28.701Z,27.67
2022-12-31T00:16:12.369Z,28.80
2022-12-31T00:16:44.308Z,29.65
2022-12-31T00:17:15.906Z,28.85
2022-12-31T00:17:47.523Z,27.48
2022-12-31T00:18:19.174Z,27.38
2022-12-31T00:18:53.289Z,29.02
2022-12-31T00:19:24.895Z,28.20
2022-12-31T00:19:56.475Z,27.25
2022-12-31T00:20:28.095Z,27.90
2022-12-31T00:20:59.985Z,27.27
2022-12-31T00:21:33.060Z,27.73
2022-12-31T00:22:04.663Z,28.25
2022-12-31T00:22:36.271Z,26.65
2022-12-31T00:23:09.399Z,27.33
2022-12-31T00:23:41.400Z,27.13
2022-12-31T00:24:13.135Z,27.17
2022-12-31T00:24:44.806Z,27.45
2022-12-31T00:25:16.560Z,25.70
2022-12-31T00:25:48.136Z,26.95
2022-12-31T00:26:27.041Z,26.02
2022-12-31T00:26:58.592Z,25.98
2022-12-31T00:27:31.331Z,25.90
2022-12-31T00:28:04.713Z,25.90
2022-12-31T00:28:37.181Z,26.30
2022-12-31T00:29:10.384Z,26.55
2022-12-31T00:29:41.969Z,24.55
2022-12-31T00:30:14.071Z,26.23
2022-12-31T00:30:45.670Z,26.95
2022-12-31T00:31:20.159Z,25.80
2022-12-31T00:31:51.781Z,26.45
2022-12-31T00:32:23.353Z,26.45
2022-12-31T00:32:54.904Z,25.17
2022-12-31T00:33:26.467Z,26.13
2022-12-31T00:33:59.434Z,25.30
2022-12-31T00:34:31.025Z,25.50
2022-12-31T00:35:02.652Z,26.05
2022-12-31T00:35:36.490Z,27.52
2022-12-31T00:36:30.362Z,25.80
2022-12-31T00:37:01.923Z,23.50
2022-12-31T00:37:33.521Z,24.17
2022-12-31T00:38:05.122Z,25.60
2022-12-31T00:38:37.934Z,26.27
2022-12-31T00:39:10.972Z,26.33
2022-12-31T00:39:42.555Z,26.17
2022-12-31T00:40:14.659Z,23.90
2022-12-31T00:40:46.277Z,25.48
2022-12-31T00:41:19.066Z,26.40
2022-12-31T00:41:50.633Z,25.70
2022-12-31T00:42:22.280Z,26.90
2022-12-31T00:42:53.841Z,27.23
2022-12-31T00:43:25.438Z,25.90
2022-12-31T00:43:57.129Z,26.95
2022-12-31T00:44:28.678Z,26.13
2022-12-31T00:45:00.288Z,25.48
2022-12-31T00:45:31.843Z,26.48
2022-12-31T00:46:04.439Z,25.55
2022-12-31T00:47:09.201Z,26.05
2022-12-31T00:47:40.816Z,26.75
2022-12-31T00:48:12.436Z,25.48
2022-12-31T00:48:44.166Z,25.95
2022-12-31T00:49:15.967Z,26.48
2022-12-31T00:49:47.565Z,26.58
2022-12-31T00:50:19.118Z,26.20
2022-12-31T00:50:50.991Z,26.08
2022-12-31T00:51:24.267Z,25.13
2022-12-31T00:51:55.813Z,26.77
2022-12-31T00:52:27.413Z,26.73
2022-12-31T00:52:59.184Z,26.67
2022-12-31T00:53:31.342Z,27.30
2022-12-31T00:54:02.929Z,26.27
2022-12-31T00:54:34.688Z,27.13
2022-12-31T00:55:06.917Z,26.75
2022-12-31T00:55:38.517Z,26.50
2022-12-31T00:56:15.346Z,25.80
2022-12-31T00:56:47.032Z,25.92
2022-12-31T00:57:18.605Z,26.02
2022-12-31T00:57:50.224Z,26.27
2022-12-31T00:58:21.825Z,27.63
2022-12-31T00:58:53.489Z,26.00
2022-12-31T00:59:25.190Z,26.65
2022-12-31T00:59:56.831Z,26.55
2022-12-31T01:00:28.392Z,26.85
2022-12-31T01:01:08.861Z,28.83
2022-12-31T01:01:42.042Z,27.98
2022-12-31T01:02:14.026Z,26.23
2022-12-31T01:02:45.775Z,26.85
2022-12-31T01:03:17.423Z,27.83
2022-12-31T01:03:50.922Z,28.30
2022-12-31T01:04:22.562Z,27.27
2022-12-31T01:04:54.125Z,28.83
2022-12-31T01:05:25.703Z,29.17
2022-12-31T01:05:59.333Z,27.30
2022-12-31T01:06:31.381Z,27.30
2022-12-31T01:07:02.986Z,28.42
2022-12-31T01:07:34.549Z,25.67
2022-12-31T01:08:06.427Z,26.70
2022-12-31T01:08:38.054Z,25.67
2022-12-31T01:09:11.460Z,29.40
2022-12-31T01:09:43.176Z,26.27
2022-12-31T01:10:34.821Z,26.05
2022-12-31T01:11:28.983Z,26.27
2022-12-31T01:12:00.713Z,26.27
2022-12-31T01:12:32.269Z,27.40
2022-12-31T01:13:04.001Z,26.00
2022-12-31T01:13:35.638Z,27.27
2022-12-31T01:14:10.127Z,25.40
2022-12-31T01:14:41.753Z,25.98
2022-12-31T01:15:13.307Z,26.30
2022-12-31T01:15:44.971Z,26.27
2022-12-31T01:16:18.693Z,27.90
2022-12-31T01:16:52.744Z,27.15
2022-12-31T01:17:24.446Z,26.98
2022-12-31T01:17:56.013Z,26.65
2022-12-31T01:18:27.643Z,26.40
2022-12-31T01:19:04.974Z,27.00
2022-12-31T01:19:36.558Z,26.77
2022-12-31T01:20:08.608Z,27.38
2022-12-31T01:20:42.881Z,27.10
2022-12-31T01:21:15.326Z,26.30
2022-12-31T01:21:47.836Z,27.25
2022-12-31T01:22:19.479Z,27.63
2022-12-31T01:22:51.058Z,26.77
2022-12-31T01:23:22.629Z,28.33
2022-12-31T01:23:54.265Z,27.63
2022-12-31T01:24:25.915Z,27.80
2022-12-31T01:24:57.489Z,26.17
2022-12-31T01:25:29.059Z,27.15
2022-12-31T01:26:02.511Z,28.50
2022-12-31T01:26:34.406Z,26.27
2022-12-31T01:27:06.013Z,25.95
2022-12-31T01:27:37.591Z,27.90
2022-12-31T01:28:09.564Z,25.55
2022-12-31T01:28:41.538Z,26.98
2022-12-31T01:29:13.736Z,26.42
2022-12-31T01:29:45.279Z,26.38
2022-12-31T01:30:16.930Z,26.50
2022-12-31T01:30:48.553Z,25.83
2022-12-31T01:31:22.101Z,26.13
2022-12-31T01:31:53.672Z,26.63
2022-12-31T01:32:25.303Z,26.05
2022-12-31T01:32:56.961Z,25.48
2022-12-31T01:33:28.515Z,25.27
2022-12-31T01:34:00.138Z,26.10
2022-12-31T01:34:31.858Z,26.15
2022-12-31T01:35:03.654Z,26.52
2022-12-31T01:35:36.479Z,26.33
2022-12-31T01:36:20.369Z,26.45
2022-12-31T01:36:56.727Z,26.35
2022-12-31T01:37:28.289Z,27.50
2022-12-31T01:37:59.854Z,25.23
2022-12-31T01:38:31.539Z,25.80
2022-12-31T01:39:05.639Z,24.60
2022-12-31T01:39:37.225Z,25.35
2022-12-31T01:40:09.060Z,25.30
2022-12-31T01:40:41.268Z,26.13
2022-12-31T01:41:18.667Z,25.60
2022-12-31T01:41:50.306Z,24.48
2022-12-31T01:42:21.925Z,26.20
2022-12-31T01:42:59.613Z,24.65
2022-12-31T01:43:50.210Z,25.70
2022-12-31T01:44:24.808Z,24.50
2022-12-31T01:44:56.836Z,24.05
2022-12-31T01:45:28.747Z,24.33
2022-12-31T01:46:00.786Z,24.38
2022-12-31T01:46:47.332Z,25.15
2022-12-31T01:47:29.333Z,24.20
2022-12-31T01:48:01.029Z,24.30
2022-12-31T01:48:32.657Z,24.27
2022-12-31T01:49:49.656Z,24.27
2022-12-31T01:50:31.584Z,22.73
2022-12-31T01:51:03.408Z,24.50
2022-12-31T01:51:35.448Z,24.80
2022-12-31T01:52:12.137Z,24.15
2022-12-31T01:52:50.076Z,24.67
2022-12-31T01:53:22.166Z,24.02
2022-12-31T01:53:54.515Z,24.58
2022-12-31T01:54:27.807Z,25.98
2022-12-31T01:55:05.083Z,25.10
2022-12-31T01:55:48.638Z,23.50
2022-12-31T01:56:22.975Z,22.30
2022-12-31T01:56:56.505Z,24.13
2022-12-31T01:57:28.552Z,23.35
2022-12-31T01:58:06.686Z,24.70
2022-12-31T01:58:45.723Z,25.42
2022-12-31T01:59:18.682Z,22.58
2022-12-31T01:59:50.736Z,23.63
2022-12-31T02:00:22.336Z,23.23
2022-12-31T02:01:41.017Z,23.65
2022-12-31T02:02:14.502Z,24.73
2022-12-31T02:02:46.911Z,24.33
2022-12-31T02:03:20.097Z,24.38
2022-12-31T02:03:53.277Z,25.17
2022-12-31T02:04:26.581Z,23.00
2022-12-31T02:05:02.177Z,24.45
2022-12-31T02:05:39.370Z,23.33
2022-12-31T02:06:20.315Z,23.20
2022-12-31T02:07:01.942Z,23.85
2022-12-31T02:07:33.780Z,21.92
2022-12-31T02:08:06.535Z,23.00
2022-12-31T02:08:42.144Z,23.60
2022-12-31T02:09:14.211Z,23.92
2022-12-31T02:09:45.957Z,23.77
2022-12-31T02:10:17.789Z,24.08
2022-12-31T02:10:49.581Z,22.55
2022-12-31T02:11:35.375Z,24.10
2022-12-31T02:12:08.959Z,23.05
2022-12-31T02:12:40.798Z,23.13
2022-12-31T02:13:13.009Z,23.63
2022-12-31T02:13:44.588Z,23.65
2022-12-31T02:14:20.734Z,24.42
2022-12-31T02:14:53.793Z,24.08
2022-12-31T02:15:45.382Z,24.00
2022-12-31T02:16:59.459Z,22.50
2022-12-31T02:17:37.287Z,22.45
2022-12-31T02:18:38.103Z,22.25
2022-12-31T02:19:09.658Z,21.48
2022-12-31T02:20:18.261Z,22.77
2022-12-31T02:21:19.315Z,21.13
2022-12-31T02:22:07.137Z,20.92
2022-12-31T02:23:22.341Z,22.27
2022-12-31T02:24:21.564Z,20.02
2022-12-31T02:25:37.032Z,20.73
2022-12-31T02:26:27.106Z,21.63
2022-12-31T02:27:10.573Z,21.85
2022-12-31T02:28:07.726Z,20.38
2022-12-31T02:28:51.239Z,21.33
2022-12-31T02:29:49.700Z,22.27
2022-12-31T02:30:25.464Z,20.88
2022-12-31T02:31:25.566Z,22.75
2022-12-31T02:32:12.425Z,21.63
2022-12-31T02:33:13.279Z,22.13
2022-12-31T02:33:58.243Z,21.83
2022-12-31T02:34:41.409Z,21.40
2022-12-31T02:35:20.620Z,22.73
2022-12-31T02:35:58.109Z,22.55
2022-12-31T02:36:33.424Z,22.30
2022-12-31T02:37:10.473Z,22.45
2022-12-31T02:37:45.697Z,22.13
2022-12-31T02:38:33.191Z,22.98
2022-12-31T02:39:07.224Z,22.52
2022-12-31T02:39:40.970Z,21.88
2022-12-31T02:40:17.046Z,23.83
2022-12-31T02:40:49.338Z,23.33
2022-12-31T02:41:40.138Z,22.17
2022-12-31T02:42:11.757Z,21.83
2022-12-31T02:42:43.425Z,22.73
2022-12-31T02:43:15.172Z,23.27
2022-12-31T02:43:47.271Z,22.60
2022-12-31T02:44:24.925Z,23.33
2022-12-31T02:44:56.537Z,22.95
2022-12-31T02:45:36.822Z,22.95
2022-12-31T02:46:20.790Z,23.17
2022-12-31T02:47:10.938Z,21.77
2022-12-31T02:48:00.981Z,21.75
2022-12-31T02:48:38.514Z,21.70
2022-12-31T02:49:23.707Z,21.33
2022-12-31T02:50:20.206Z,20.85
2022-12-31T02:51:06.951Z,21.70
2022-12-31T02:51:56.410Z,20.80
2022-12-31T02:52:39.814Z,21.08
2022-12-31T02:53:23.042Z,21.40
2022-12-31T02:54:11.733Z,21.58
2022-12-31T02:55:25.465Z,21.42
2022-12-31T02:56:26.951Z,20.02
2022-12-31T02:57:07.078Z,20.50
2022-12-31T02:58:01.112Z,21.58
2022-12-31T02:59:12.625Z,21.05
2022-12-31T03:00:05.658Z,20.38
2022-12-31T03:01:04.000Z,20.55
2022-12-31T03:01:58.787Z,20.92
2022-12-31T03:02:33.665Z,20.73
2022-12-31T03:03:06.504Z,20.67
2022-12-31T03:03:38.398Z,22.75
2022-12-31T03:04:31.068Z,22.88
2022-12-31T03:05:03.987Z,21.42
2022-12-31T03:05:41.586Z,20.88
2022-12-31T03:06:13.852Z,21.48
2022-12-31T03:06:45.482Z,22.05
2022-12-31T03:07:35.290Z,22.10
2022-12-31T03:08:07.056Z,21.23
2022-12-31T03:09:02.429Z,21.85
2022-12-31T03:09:35.458Z,21.83
2022-12-31T03:10:08.099Z,22.48
2022-12-31T03:10:39.718Z,21.88
2022-12-31T03:11:31.260Z,21.15
2022-12-31T03:12:23.988Z,20.58
2022-12-31T03:12:55.707Z,19.67
2022-12-31T03:13:27.351Z,21.45
2022-12-31T03:13:58.949Z,23.40
2022-12-31T03:14:30.589Z,22.23
2022-12-31T03:15:06.647Z,23.02
2022-12-31T03:15:39.057Z,22.75
2022-12-31T03:16:10.693Z,23.90
2022-12-31T03:16:42.297Z,23.00
2022-12-31T03:17:14.006Z,22.10
2022-12-31T03:17:51.701Z,21.23
2022-12-31T03:18:43.385Z,21.67
2022-12-31T03:19:33.736Z,21.50
2022-12-31T03:20:24.487Z,21.27
2022-12-31T03:21:14.943Z,20.80
2022-12-31T03:22:05.403Z,20.35
2022-12-31T03:22:39.523Z,20.83
2022-12-31T03:23:14.827Z,22.02
2022-12-31T03:23:50.273Z,21.95
2022-12-31T03:24:41.951Z,22.13
2022-12-31T03:25:36.043Z,21.65
2022-12-31T03:26:10.809Z,21.88
2022-12-31T03:26:42.391Z,22.08
2022-12-31T03:27:14.004Z,22.63
2022-12-31T03:27:47.041Z,21.88
2022-12-31T03:28:20.251Z,23.02
2022-12-31T03:28:51.906Z,22.77
2022-12-31T03:29:23.521Z,23.17
2022-12-31T03:29:55.119Z,22.10
2022-12-31T03:30:28.155Z,22.40
2022-12-31T03:31:01.726Z,22.80
2022-12-31T03:31:33.519Z,22.88
2022-12-31T03:32:05.165Z,23.83
2022-12-31T03:32:36.894Z,22.85
2022-12-31T03:33:09.159Z,23.08
2022-12-31T03:33:41.866Z,23.52
2022-12-31T03:34:15.685Z,23.60
2022-12-31T03:34:47.249Z,22.08
2022-12-31T03:35:20.704Z,23.00
2022-12-31T03:35:52.975Z,23.08
2022-12-31T03:36:24.559Z,22.60
2022-12-31T03:36:56.144Z,22.00
2022-12-31T03:37:27.840Z,21.95
2022-12-31T03:37:59.602Z,22.65
2022-12-31T03:38:31.165Z,23.10
2022-12-31T03:39:02.812Z,22.58
2022-12-31T03:39:34.405Z,22.40
2022-12-31T03:40:08.323Z,22.70
2022-12-31T03:40:45.391Z,20.85
2022-12-31T03:41:16.976Z,22.27
2022-12-31T03:41:48.545Z,23.15
2022-12-31T03:42:20.117Z,22.38
2022-12-31T03:42:51.758Z,22.08
2022-12-31T03:43:23.403Z,22.48
2022-12-31T03:43:54.969Z,22.75
2022-12-31T03:44:26.585Z,21.23
2022-12-31T03:44:58.167Z,22.13
2022-12-31T03:45:30.805Z,22.67
2022-12-31T03:46:02.561Z,21.70
2022-12-31T03:46:34.235Z,22.02
2022-12-31T03:47:05.824Z,21.38
2022-12-31T03:47:37.521Z,24.17
2022-12-31T03:48:10.656Z,22.85
2022-12-31T03:48:42.218Z,22.52
2022-12-31T03:49:13.822Z,22.02
2022-12-31T03:49:45.429Z,21.73
2022-12-31T03:50:18.701Z,21.67
2022-12-31T03:50:50.708Z,23.73
2022-12-31T03:51:22.317Z,23.20
2022-12-31T03:51:53.861Z,22.20
2022-12-31T03:52:25.468Z,23.25
2022-12-31T03:52:57.541Z,22.95
2022-12-31T03:53:29.187Z,23.50
2022-12-31T03:54:00.841Z,23.17
2022-12-31T03:54:32.932Z,23.02
2022-12-31T03:55:05.313Z,24.30
2022-12-31T03:55:37.362Z,22.85
2022-12-31T03:56:08.922Z,22.60
2022-12-31T03:56:40.564Z,22.75
2022-12-31T03:57:12.493Z,23.08
2022-12-31T03:57:44.124Z,22.73
2022-12-31T03:58:15.708Z,22.77
2022-12-31T03:58:47.275Z,23.73
2022-12-31T03:59:18.832Z,23.42
2022-12-31T03:59:50.566Z,23.38
2022-12-31T04:00:22.649Z,23.10
2022-12-31T04:00:54.323Z,22.30
2022-12-31T04:01:26.240Z,23.75
2022-12-31T04:01:58.118Z,21.67
2022-12-31T04:02:29.888Z,22.55
2022-12-31T04:03:01.564Z,21.88
2022-12-31T04:03:33.145Z,22.60
2022-12-31T04:04:05.876Z,23.50
2022-12-31T04:04:37.464Z,23.25
2022-12-31T04:05:10.251Z,22.35
2022-12-31T04:05:41.856Z,21.25
2022-12-31T04:06:13.455Z,23.67
2022-12-31T04:06:45.008Z,21.83
2022-12-31T04:07:16.643Z,21.67
2022-12-31T04:07:48.566Z,22.17
2022-12-31T04:08:20.120Z,21.17
2022-12-31T04:08:51.672Z,22.45
2022-12-31T04:09:23.365Z,21.90
2022-12-31T04:09:54.968Z,21.73
2022-12-31T04:10:26.537Z,21.77
2022-12-31T04:10:58.356Z,22.17
2022-12-31T04:11:29.929Z,22.33
2022-12-31T04:12:01.482Z,22.58
2022-12-31T04:12:33.325Z,22.65
2022-12-31T04:13:05.046Z,23.25
2022-12-31T04:13:36.658Z,23.00
2022-12-31T04:14:08.465Z,21.55
2022-12-31T04:14:40.061Z,21.50
2022-12-31T04:15:16.887Z,22.55
2022-12-31T04:15:51.641Z,22.80
2022-12-31T04:16:23.272Z,22.52
2022-12-31T04:16:55.092Z,23.08
2022-12-31T04:17:27.403Z,24.13
2022-12-31T04:17:59.104Z,22.50
2022-12-31T04:18:31.097Z,22.42
2022-12-31T04:19:02.669Z,22.90
2022-12-31T04:19:34.265Z,22.80
2022-12-31T04:20:06.394Z,23.52
2022-12-31T04:20:37.948Z,23.25
2022-12-31T04:21:09.502Z,22.70
2022-12-31T04:21:41.324Z,23.50
2022-12-31T04:22:13.028Z,21.75
2022-12-31T04:22:44.847Z,22.70
2022-12-31T04:23:16.685Z,22.85
2022-12-31T04:23:48.276Z,21.45
2022-12-31T04:24:19.982Z,22.25
2022-12-31T04:24:51.792Z,22.73
2022-12-31T04:25:23.355Z,23.23
2022-12-31T04:25:54.917Z,22.15
2022-12-31T04:26:26.512Z,23.20
2022-12-31T04:27:05.373Z,23.63
2022-12-31T04:27:40.938Z,23.05
2022-12-31T04:28:12.527Z,21.33
2022-12-31T04:28:44.107Z,23.45
2022-12-31T04:29:15.746Z,22.80
2022-12-31T04:29:47.307Z,22.55
2022-12-31T04:30:18.928Z,22.25
2022-12-31T04:30:50.485Z,22.20
2022-12-31T04:31:22.177Z,23.23
2022-12-31T04:31:54.626Z,23.23
2022-12-31T04:32:26.230Z,21.77
2022-12-31T04:32:57.823Z,22.83
2022-12-31T04:33:29.711Z,24.48
2022-12-31T04:34:01.286Z,22.45
2022-12-31T04:34:33.690Z,22.80
2022-12-31T04:35:05.866Z,23.48
2022-12-31T04:35:37.463Z,23.67
2022-12-31T04:36:09.419Z,23.13
2022-12-31T04:36:41.061Z,23.02
2022-12-31T04:37:12.667Z,24.45
2022-12-31T04:37:44.265Z,23.63
2022-12-31T04:38:15.951Z,22.63
2022-12-31T04:38:47.562Z,22.88
2022-12-31T04:39:19.216Z,22.63
2022-12-31T04:39:50.804Z,23.00
2022-12-31T04:40:22.402Z,23.00
2022-12-31T04:41:12.504Z,22.10
2022-12-31T04:41:44.066Z,22.17
2022-12-31T04:42:15.661Z,23.75
2022-12-31T04:42:47.208Z,21.95
2022-12-31T04:43:18.757Z,24.98
2022-12-31T04:43:53.338Z,23.58
2022-12-31T04:44:24.949Z,22.13
2022-12-31T04:44:56.557Z,23.27
2022-12-31T04:45:28.163Z,23.42
2022-12-31T04:45:59.847Z,22.08
2022-12-31T04:46:33.297Z,22.73
2022-12-31T04:47:04.932Z,23.17
2022-12-31T04:47:36.505Z,22.60
2022-12-31T04:48:08.077Z,22.17
2022-12-31T04:48:40.051Z,21.83
2022-12-31T04:49:11.915Z,22.55
2022-12-31T04:49:44.223Z,21.42
2022-12-31T04:50:15.863Z,22.75
2022-12-31T04:50:47.611Z,21.77
2022-12-31T04:51:20.336Z,22.80
2022-12-31T04:51:51.969Z,22.08
2022-12-31T04:52:23.618Z,22.20
2022-12-31T04:52:55.175Z,22.55
2022-12-31T04:53:27.051Z,22.00
2022-12-31T04:53:58.982Z,22.88
2022-12-31T04:54:30.578Z,21.98
2022-12-31T04:55:02.163Z,21.83
2022-12-31T04:55:33.714Z,21.92
2022-12-31T04:56:05.940Z,22.52
2022-12-31T04:56:37.619Z,21.95
2022-12-31T04:57:09.271Z,22.05
2022-12-31T04:57:41.505Z,21.90
2022-12-31T04:58:13.107Z,22.90
2022-12-31T04:58:45.382Z,22.42
2022-12-31T04:59:16.992Z,22.40
2022-12-31T04:59:48.629Z,22.00
2022-12-31T05:00:20.318Z,22.23
2022-12-31T05:00:54.724Z,22.45
2022-12-31T05:01:26.621Z,21.92
2022-12-31T05:01:58.534Z,21.83
2022-12-31T05:02:30.323Z,22.85
2022-12-31T05:03:02.087Z,22.33
2022-12-31T05:03:34.452Z,22.17
2022-12-31T05:04:06.287Z,22.17
2022-12-31T05:04:37.884Z,22.58
2022-12-31T05:05:09.607Z,21.77
2022-12-31T05:05:43.534Z,21.65
2022-12-31T05:06:18.197Z,21.83
2022-12-31T05:06:49.813Z,22.52
2022-12-31T05:07:21.426Z,23.45
2022-12-31T05:07:53.070Z,22.85
2022-12-31T05:08:24.620Z,22.85
2022-12-31T05:08:56.474Z,22.35
2022-12-31T05:09:28.433Z,21.92
2022-12-31T05:10:00.047Z,22.92
2022-12-31T05:10:31.597Z,21.35
2022-12-31T05:11:03.459Z,21.98
2022-12-31T05:11:35.748Z,23.92
2022-12-31T05:12:07.391Z,25.05
2022-12-31T05:12:38.968Z,25.95
2022-12-31T05:13:10.590Z,25.95
2022-12-31T05:13:42.800Z,26.80
2022-12-31T05:14:14.364Z,25.00
2022-12-31T05:14:46.027Z,23.50
2022-12-31T05:15:17.630Z,23.05
2022-12-31T05:15:49.227Z,23.70
2022-12-31T05:16:20.877Z,23.05
2022-12-31T05:16:52.672Z,21.88
2022-12-31T05:17:24.273Z,21.65
2022-12-31T05:17:55.845Z,21.13
2022-12-31T05:18:27.467Z,21.85
2022-12-31T05:18:59.032Z,21.60
2022-12-31T05:19:30.576Z,24.13
2022-12-31T05:20:02.159Z,23.90
2022-12-31T05:20:33.837Z,23.02
2022-12-31T05:21:06.522Z,23.38
2022-12-31T05:21:38.368Z,23.48
2022-12-31T05:22:28.298Z,24.73
2022-12-31T05:23:00.025Z,28.00
2022-12-31T05:23:31.691Z,25.52
2022-12-31T05:24:03.349Z,24.27
2022-12-31T05:24:34.913Z,25.25
2022-12-31T05:25:06.938Z,26.17
2022-12-31T05:25:38.657Z,22.60
2022-12-31T05:26:10.200Z,21.73
2022-12-31T05:26:41.804Z,23.30
2022-12-31T05:27:13.421Z,22.77
2022-12-31T05:27:45.060Z,23.02
2022-12-31T05:28:17.362Z,23.73
2022-12-31T05:28:48.926Z,23.10
2022-12-31T05:29:20.506Z,22.20
2022-12-31T05:29:52.132Z,22.90
2022-12-31T05:30:24.213Z,22.77
2022-12-31T05:30:56.031Z,22.45
2022-12-31T05:31:27.700Z,23.27
2022-12-31T05:31:59.329Z,22.17
2022-12-31T05:32:31.049Z,21.27
2022-12-31T05:33:02.712Z,21.55
2022-12-31T05:33:34.342Z,21.88
2022-12-31T05:34:05.901Z,21.02
2022-12-31T05:34:37.491Z,21.77
2022-12-31T05:35:09.443Z,21.80
2022-12-31T05:35:41.131Z,23.55
2022-12-31T05:36:12.726Z,21.02
2022-12-31T05:36:44.360Z,20.27
2022-12-31T05:37:15.941Z,21.25
2022-12-31T05:37:47.583Z,21.98
2022-12-31T05:38:19.179Z,21.83
2022-12-31T05:38:50.767Z,20.58
2022-12-31T05:39:22.373Z,21.80
2022-12-31T05:39:53.942Z,21.83
2022-12-31T05:40:25.510Z,21.17
2022-12-31T05:41:04.672Z,21.42
2022-12-31T05:41:36.272Z,21.40
2022-12-31T05:42:07.827Z,20.88
2022-12-31T05:42:39.911Z,22.27
2022-12-31T05:43:11.539Z,22.55
2022-12-31T05:43:43.100Z,22.52
2022-12-31T05:44:14.727Z,22.55
2022-12-31T05:44:46.290Z,21.90
2022-12-31T05:45:18.577Z,21.92
2022-12-31T05:45:50.235Z,21.80
2022-12-31T05:46:21.865Z,21.40
2022-12-31T05:46:53.449Z,21.23
2022-12-31T05:47:25.452Z,20.63
2022-12-31T05:47:57.103Z,20.02
2022-12-31T05:48:29.080Z,21.30
2022-12-31T05:49:00.647Z,21.25
2022-12-31T05:49:32.261Z,22.60
2022-12-31T05:50:04.140Z,21.35
2022-12-31T05:50:35.757Z,20.77
2022-12-31T05:51:07.405Z,22.25
2022-12-31T05:51:39.063Z,21.95
2022-12-31T05:52:10.711Z,21.20
2022-12-31T05:52:47.448Z,21.15
2022-12-31T05:53:19.571Z,21.75
2022-12-31T05:53:51.127Z,21.17
2022-12-31T05:54:22.737Z,22.30
2022-12-31T05:54:54.314Z,21.70
2022-12-31T05:55:25.904Z,21.73
2022-12-31T05:55:57.502Z,21.10
2022-12-31T05:56:29.129Z,21.50
2022-12-31T05:57:00.713Z,21.50
2022-12-31T05:57:32.265Z,21.85
2022-12-31T05:58:03.860Z,22.33
2022-12-31T05:58:35.462Z,20.95
2022-12-31T05:59:07.028Z,22.42
2022-12-31T05:59:38.726Z,21.52
2022-12-31T06:00:10.980Z,22.13
2022-12-31T06:00:43.092Z,21.63
2022-12-31T06:01:14.727Z,22.35
2022-12-31T06:01:46.296Z,22.83
2022-12-31T06:02:17.904Z,23.17
2022-12-31T06:02:49.595Z,22.02
2022-12-31T06:03:21.453Z,22.10
2022-12-31T06:03:53.321Z,21.55
2022-12-31T06:04:25.417Z,23.95
2022-12-31T06:04:57.013Z,22.35
2022-12-31T06:05:28.632Z,22.52
2022-12-31T06:06:01.518Z,22.02
2022-12-31T06:06:33.180Z,22.50
2022-12-31T06:07:04.794Z,22.52
2022-12-31T06:07:36.380Z,22.92
2022-12-31T06:08:07.992Z,22.35
2022-12-31T06:08:39.650Z,23.15
2022-12-31T06:09:11.316Z,21.58
2022-12-31T06:09:42.952Z,22.92
2022-12-31T06:10:14.545Z,21.90
2022-12-31T06:10:46.200Z,21.92
2022-12-31T06:11:17.799Z,23.05
2022-12-31T06:11:49.701Z,22.48
2022-12-31T06:12:21.328Z,20.67
2022-12-31T06:12:53.024Z,20.85
2022-12-31T06:13:24.604Z,21.63
2022-12-31T06:13:56.347Z,21.27
2022-12-31T06:14:27.956Z,21.58
2022-12-31T06:14:59.619Z,22.80
2022-12-31T06:15:31.641Z,22.50
2022-12-31T06:16:09.396Z,22.42
2022-12-31T06:16:41.259Z,21.58
2022-12-31T06:17:12.972Z,22.75
2022-12-31T06:17:44.562Z,22.20
2022-12-31T06:18:16.129Z,21.52
2022-12-31T06:18:50.362Z,22.55
2022-12-31T06:19:21.952Z,21.80
2022-12-31T06:19:53.590Z,20.85
2022-12-31T06:20:25.220Z,22.75
2022-12-31T06:20:58.732Z,21.48
2022-12-31T06:21:30.402Z,21.88
2022-12-31T06:22:02.093Z,22.27
2022-12-31T06:22:33.673Z,23.30
2022-12-31T06:23:05.976Z,23.10
2022-12-31T06:23:37.625Z,21.08
2022-12-31T06:24:09.329Z,22.33
2022-12-31T06:24:42.291Z,22.65
2022-12-31T06:25:14.098Z,22.35
2022-12-31T06:25:45.942Z,22.55
2022-12-31T06:26:17.525Z,21.98
2022-12-31T06:26:49.099Z,22.30
2022-12-31T06:27:20.660Z,22.92
2022-12-31T06:27:52.233Z,22.80
2022-12-31T06:28:23.806Z,22.65
2022-12-31T06:28:55.304Z,22.88
2022-12-31T06:29:26.880Z,23.98
2022-12-31T06:29:58.445Z,23.83
2022-12-31T06:30:30.036Z,23.33
2022-12-31T06:31:06.870Z,23.75
2022-12-31T06:31:38.503Z,23.35
2022-12-31T06:32:10.052Z,23.50
2022-12-31T06:32:42.246Z,23.05
2022-12-31T06:33:14.151Z,22.15
2022-12-31T06:33:47.018Z,22.83
2022-12-31T06:34:18.704Z,21.65
2022-12-31T06:34:50.262Z,22.05
2022-12-31T06:35:22.253Z,21.73
2022-12-31T06:36:00.941Z,21.25
2022-12-31T06:36:32.598Z,21.85
2022-12-31T06:37:04.148Z,22.40
2022-12-31T06:37:35.711Z,23.15
2022-12-31T06:38:07.296Z,22.98
2022-12-31T06:38:40.811Z,22.88
2022-12-31T06:39:12.362Z,22.35
2022-12-31T06:39:43.920Z,23.63
2022-12-31T06:40:15.562Z,23.02
2022-12-31T06:40:47.112Z,24.27
2022-12-31T06:41:18.887Z,22.80
2022-12-31T06:41:50.534Z,24.35
2022-12-31T06:42:22.093Z,23.85
2022-12-31T06:42:59.728Z,23.63
2022-12-31T06:43:32.010Z,22.90
2022-12-31T06:44:03.583Z,23.13
2022-12-31T06:44:35.191Z,23.67
2022-12-31T06:45:07.378Z,22.58
2022-12-31T06:45:39.702Z,22.10
2022-12-31T06:46:16.747Z,21.85
2022-12-31T06:46:49.949Z,21.45
2022-12-31T06:47:22.286Z,21.90
2022-12-31T06:47:53.881Z,21.90
2022-12-31T06:48:25.497Z,23.05
2022-12-31T06:48:57.200Z,21.67
2022-12-31T06:49:28.851Z,22.50
2022-12-31T06:50:00.402Z,22.65
2022-12-31T06:50:32.013Z,21.25
2022-12-31T06:51:05.577Z,21.85
2022-12-31T06:51:37.139Z,22.33
2022-12-31T06:52:08.739Z,23.08
2022-12-31T06:52:40.339Z,22.85
2022-12-31T06:53:11.943Z,23.02
2022-12-31T06:53:44.581Z,23.60
2022-12-31T06:54:17.610Z,23.60
2022-12-31T06:54:49.527Z,22.40
2022-12-31T06:55:21.458Z,23.35
2022-12-31T06:55:53.798Z,23.35
2022-12-31T06:56:34.088Z,22.25
2022-12-31T06:57:06.920Z,21.35
2022-12-31T06:57:38.868Z,22.92
2022-12-31T06:58:14.047Z,21.52
2022-12-31T06:58:46.282Z,22.45
2022-12-31T06:59:29.113Z,22.25
2022-12-31T07:00:01.468Z,21.67
2022-12-31T07:00:33.441Z,22.33
2022-12-31T07:01:22.952Z,23.30
2022-12-31T07:02:16.102Z,22.05
2022-12-31T07:03:08.929Z,21.92
2022-12-31T07:04:04.728Z,22.35
2022-12-31T07:04:54.946Z,21.55
2022-12-31T07:06:04.228Z,25.58
2022-12-31T07:06:44.233Z,25.05
2022-12-31T07:07:27.634Z,23.25
2022-12-31T07:08:27.399Z,23.35
2022-12-31T07:09:18.096Z,23.38
2022-12-31T07:10:11.046Z,22.48
2022-12-31T07:11:01.022Z,23.35
2022-12-31T07:11:43.652Z,22.88
2022-12-31T07:12:53.438Z,23.70
2022-12-31T07:13:38.242Z,23.17
2022-12-31T07:15:00.922Z,24.00
2022-12-31T07:15:54.839Z,21.95
2022-12-31T07:16:44.497Z,22.80
2022-12-31T07:17:34.632Z,23.02
2022-12-31T07:18:16.762Z,23.40
2022-12-31T07:19:07.320Z,23.10
2022-12-31T07:20:04.751Z,24.30
2022-12-31T07:20:36.592Z,23.75
2022-12-31T07:21:12.766Z,25.33
2022-12-31T07:21:44.705Z,25.67
2022-12-31T07:22:17.317Z,27.02
2022-12-31T07:22:49.256Z,25.52
2022-12-31T07:23:21.067Z,25.05
2022-12-31T07:23:52.992Z,25.33
2022-12-31T07:24:25.289Z,27.00
2022-12-31T07:24:57.232Z,27.48
2022-12-31T07:25:29.326Z,26.58
2022-12-31T07:26:14.550Z,27.30
2022-12-31T07:26:57.808Z,25.50
2022-12-31T07:27:35.101Z,25.83
2022-12-31T07:28:25.457Z,29.08
2022-12-31T07:28:59.840Z,26.83